Time;durP1;ratioP1;P1;durP2;ratioP2;P2;SDS_P1;SDS_P2;PMS_P1;PMS_P2;Temp;Humidity;BMP_temperature;BMP_pressure;BME280_temperature;BME280_humidity;BME280_pressure;Samples;Min_cycle;Max_cycle;Signal;HPM_P1;HPM_P2
2023/09/16 00:00:33;;;;;;;2.60;1.20;;;;;;;11.45;100.00;100620.81;5058599;28;20041;-49
2023/09/16 00:03:03;;;;;;;2.88;1.13;;;;;;;11.45;100.00;100621.63;5051207;28;20025;-49
2023/09/16 00:05:29;;;;;;;1.80;1.70;;;;;;;11.39;100.00;100622.41;5059336;28;20039;-48
2023/09/16 00:07:55;;;;;;;2.50;1.33;;;;;;;11.33;100.00;100620.50;5052712;28;20024;-53
2023/09/16 00:10:20;;;;;;;1.48;1.23;;;;;;;11.30;100.00;100619.06;5060799;28;20108;-48
2023/09/16 00:12:45;;;;;;;3.03;2.30;;;;;;;11.27;100.00;100618.63;5056529;28;20029;-50
2023/09/16 00:15:11;;;;;;;3.70;2.13;;;;;;;11.23;100.00;100617.38;5057973;28;20136;-51
2023/09/16 00:17:36;;;;;;;2.60;2.25;;;;;;;11.16;100.00;100613.88;5048629;28;20082;-50
2023/09/16 00:20:14;;;;;;;3.22;1.52;;;;;;;11.09;100.00;100627.06;5044677;28;20037;-48
2023/09/16 00:22:41;;;;;;;1.73;1.40;;;;;;;11.03;100.00;100622.53;5054875;28;20478;-48
2023/09/16 00:25:08;;;;;;;2.22;1.38;;;;;;;10.91;100.00;100620.34;5053467;28;20040;-52
2023/09/16 00:27:34;;;;;;;1.90;1.70;;;;;;;10.82;100.00;100621.50;5047395;28;20024;-51
2023/09/16 00:29:59;;;;;;;3.35;2.25;;;;;;;10.83;100.00;100617.03;5055275;28;21511;-51
2023/09/16 00:32:27;;;;;;;1.48;1.05;;;;;;;10.84;100.00;100616.00;5058433;28;20091;-50
2023/09/16 00:34:53;;;;;;;2.63;1.58;;;;;;;10.82;100.00;100612.75;5059717;28;20086;-51
2023/09/16 00:37:18;;;;;;;3.13;1.73;;;;;;;10.82;100.00;100616.22;5050241;28;20025;-51
2023/09/16 00:39:44;;;;;;;2.72;1.83;;;;;;;10.83;100.00;100612.53;5057729;28;20024;-52
2023/09/16 00:42:10;;;;;;;1.40;1.30;;;;;;;10.76;100.00;100606.34;5057312;28;20036;-53
2023/09/16 00:44:36;;;;;;;2.47;1.55;;;;;;;10.75;100.00;100614.50;5056537;28;20032;-51
2023/09/16 00:47:01;;;;;;;2.50;1.40;;;;;;;10.70;100.00;100615.88;5052637;28;20051;-50
2023/09/16 00:49:30;;;;;;;3.13;1.67;;;;;;;10.69;100.00;100622.19;5060917;28;20028;-47
2023/09/16 00:51:56;;;;;;;3.63;1.98;;;;;;;10.70;100.00;100626.47;5048146;28;20036;-54
2023/09/16 00:54:22;;;;;;;1.77;1.50;;;;;;;10.67;100.00;100626.88;5057823;28;20375;-48
2023/09/16 00:56:48;;;;;;;3.45;1.95;;;;;;;10.62;100.00;100628.44;5057933;28;20031;-52
2023/09/16 00:59:13;;;;;;;2.95;2.08;;;;;;;10.58;100.00;100630.63;5055902;28;20342;-50
2023/09/16 01:01:39;;;;;;;2.50;1.40;;;;;;;10.54;100.00;100634.69;5053300;28;20031;-52
2023/09/16 01:04:05;;;;;;;1.80;1.65;;;;;;;10.52;100.00;100633.22;5057550;28;20039;-53
2023/09/16 01:06:31;;;;;;;4.88;1.75;;;;;;;10.48;100.00;100630.13;5056448;28;20028;-51
2023/09/16 01:08:58;;;;;;;4.07;2.05;;;;;;;10.44;100.00;100626.19;5059199;28;20373;-51
2023/09/16 01:11:24;;;;;;;5.18;1.63;;;;;;;10.44;100.00;100626.19;5055360;28;20503;-52
2023/09/16 01:13:50;;;;;;;4.53;2.60;;;;;;;10.42;100.00;100625.56;5055821;28;20067;-48
2023/09/16 01:16:20;;;;;;;1.95;1.52;;;;;;;10.40;100.00;100623.13;5054672;28;20139;-53
2023/09/16 01:18:51;;;;;;;2.40;1.75;;;;;;;10.33;100.00;100630.16;5052860;28;20099;-49
2023/09/16 01:21:17;;;;;;;2.22;1.50;;;;;;;10.30;100.00;100625.22;5060011;28;20032;-51
2023/09/16 01:23:44;;;;;;;3.65;2.15;;;;;;;10.32;100.00;100628.50;5049327;28;20043;-51
2023/09/16 01:26:09;;;;;;;2.55;1.42;;;;;;;10.26;100.00;100624.72;5051153;28;20523;-50
2023/09/16 01:28:35;;;;;;;2.00;1.80;;;;;;;10.24;100.00;100620.63;5052142;28;20389;-48
2023/09/16 01:31:02;;;;;;;2.65;1.40;;;;;;;10.27;100.00;100614.94;5055532;28;20041;-50
2023/09/16 01:33:40;;;;;;;2.50;1.33;;;;;;;10.30;100.00;100611.13;5055411;28;20444;-55
2023/09/16 01:36:12;;;;;;;2.05;1.40;;;;;;;10.28;100.00;100608.69;5057009;28;21848;-48
2023/09/16 01:38:39;;;;;;;4.10;1.00;;;;;;;10.24;100.00;100602.91;5056468;28;20043;-49
2023/09/16 01:41:04;;;;;;;3.67;1.73;;;;;;;10.20;100.00;100604.28;5051907;28;20038;-51
2023/09/16 01:43:31;;;;;;;1.08;0.98;;;;;;;10.28;100.00;100613.19;5052187;28;20039;-52
2023/09/16 01:45:56;;;;;;;2.15;1.70;;;;;;;10.32;100.00;100609.13;5049381;28;20108;-48
2023/09/16 01:48:22;;;;;;;1.67;1.52;;;;;;;10.34;100.00;100607.13;5051893;28;20103;-51
2023/09/16 01:50:47;;;;;;;1.60;1.50;;;;;;;10.34;100.00;100609.78;5049819;28;20071;-53
2023/09/16 01:53:12;;;;;;;5.22;1.73;;;;;;;10.33;100.00;100602.84;5045179;28;20031;-51
2023/09/16 01:55:38;;;;;;;3.72;1.77;;;;;;;10.34;100.00;100612.41;5053787;28;20107;-48
2023/09/16 01:58:05;;;;;;;6.97;1.92;;;;;;;10.31;100.00;100608.31;5054845;28;20055;-48
2023/09/16 02:00:30;;;;;;;2.00;1.48;;;;;;;10.27;100.00;100617.59;5065024;28;20147;-50
2023/09/16 02:02:56;;;;;;;3.60;2.28;;;;;;;10.24;100.00;100620.63;5056409;28;20445;-53
2023/09/16 02:05:22;;;;;;;4.63;2.40;;;;;;;10.21;100.00;100608.56;5056002;28;20068;-49
2023/09/16 02:07:47;;;;;;;3.72;2.38;;;;;;;10.19;100.00;100610.56;5054800;28;20039;-51
2023/09/16 02:10:12;;;;;;;3.33;2.42;;;;;;;10.20;100.00;100616.72;5058916;28;20143;-53
2023/09/16 02:12:38;;;;;;;3.08;2.63;;;;;;;10.21;100.00;100623.66;5048943;28;20048;-48
2023/09/16 02:15:06;;;;;;;2.97;2.17;;;;;;;10.21;100.00;100621.81;5045603;28;20024;-54
2023/09/16 02:17:31;;;;;;;2.17;1.90;;;;;;;10.21;100.00;100627.13;5045959;28;20052;-54
2023/09/16 02:19:57;;;;;;;2.40;1.98;;;;;;;10.20;100.00;100620.19;5047524;28;20028;-52
2023/09/16 02:22:22;;;;;;;3.28;2.97;;;;;;;10.19;100.00;100630.97;5053894;28;20041;-52
2023/09/16 02:24:48;;;;;;;3.67;2.50;;;;;;;10.19;100.00;100625.66;5042829;28;20191;-50
2023/09/16 02:27:13;;;;;;;5.22;2.10;;;;;;;10.15;100.00;100625.22;5046692;28;20029;-52
2023/09/16 02:29:39;;;;;;;3.22;2.75;;;;;;;10.15;100.00;100619.91;5053549;28;20111;-49
2023/09/16 02:32:04;;;;;;;4.97;2.33;;;;;;;10.16;100.00;100624.19;5053599;28;20592;-50
2023/09/16 02:34:31;;;;;;;2.63;1.90;;;;;;;10.20;100.00;100629.97;5057159;28;20064;-52
2023/09/16 02:36:58;;;;;;;3.35;1.83;;;;;;;10.24;100.00;100629.38;5051057;28;20033;-53
2023/09/16 02:39:23;;;;;;;3.80;3.33;;;;;;;10.32;100.00;100622.38;5049567;28;20028;-48
2023/09/16 02:41:49;;;;;;;2.60;2.10;;;;;;;10.36;100.00;100624.47;5055140;28;20449;-50
2023/09/16 02:44:14;;;;;;;4.95;2.53;;;;;;;10.43;100.00;100621.91;5056393;28;20039;-51
2023/09/16 02:46:39;;;;;;;2.30;1.98;;;;;;;10.41;100.00;100611.50;5053342;28;20044;-53
2023/09/16 02:49:05;;;;;;;2.67;1.70;;;;;;;10.34;100.00;100617.72;5049344;28;20666;-52
2023/09/16 02:51:32;;;;;;;2.67;2.10;;;;;;;10.32;100.00;100625.03;5053248;28;20367;-52
2023/09/16 02:53:57;;;;;;;3.67;2.47;;;;;;;10.37;100.00;100620.00;5048038;28;20043;-50
2023/09/16 02:56:22;;;;;;;6.35;2.03;;;;;;;10.39;100.00;100618.81;5056258;28;20397;-49
2023/09/16 02:58:47;;;;;;;4.75;2.20;;;;;;;10.42;100.00;100621.06;5053661;28;20383;-50
2023/09/16 03:01:13;;;;;;;2.53;1.90;;;;;;;10.50;100.00;100621.97;5043738;28;20048;-51
2023/09/16 03:03:38;;;;;;;4.45;3.08;;;;;;;10.57;100.00;100622.88;5047480;28;20029;-49
2023/09/16 03:06:04;;;;;;;4.68;2.30;;;;;;;10.61;100.00;100624.97;5054781;28;20116;-51
2023/09/16 03:08:29;;;;;;;3.10;2.13;;;;;;;10.64;100.00;100629.91;5049495;28;20032;-55
2023/09/16 03:10:59;;;;;;;4.25;2.80;;;;;;;10.71;100.00;100632.59;5058766;28;20041;-52
2023/09/16 03:13:25;;;;;;;3.60;2.85;;;;;;;10.80;100.00;100628.03;5056956;28;20024;-50
2023/09/16 03:16:20;;;;;;;3.38;2.78;;;;;;;10.90;100.00;100631.19;5058591;28;20033;-54
2023/09/16 03:18:47;;;;;;;7.47;2.70;;;;;;;10.94;100.00;100634.25;5050177;28;20032;-52
2023/09/16 03:21:14;;;;;;;3.47;3.10;;;;;;;10.93;100.00;100630.81;5053142;28;20084;-54
2023/09/16 03:23:40;;;;;;;5.63;3.38;;;;;;;10.94;100.00;100624.47;5060314;28;20496;-53
2023/09/16 03:26:07;;;;;;;4.53;2.67;;;;;;;10.95;100.00;100625.31;5056013;28;20032;-53
2023/09/16 03:28:32;;;;;;;3.08;2.78;;;;;;;10.95;100.00;100625.31;5058333;28;20055;-53
2023/09/16 03:30:58;;;;;;;4.35;2.30;;;;;;;10.95;100.00;100630.63;5055112;28;20048;-51
2023/09/16 03:33:23;;;;;;;4.03;3.20;;;;;;;10.91;100.00;100624.84;5053018;28;20493;-50
2023/09/16 03:35:48;;;;;;;3.22;2.47;;;;;;;10.94;100.00;100628.97;5052794;28;20032;-50
2023/09/16 03:38:16;;;;;;;2.88;2.63;;;;;;;10.97;100.00;100634.72;5055201;28;20044;-49
2023/09/16 03:40:41;;;;;;;4.90;3.28;;;;;;;10.98;100.00;100630.22;5054324;28;20115;-53
2023/09/16 03:43:07;;;;;;;6.47;3.45;;;;;;;11.00;100.00;100623.72;5051754;28;20504;-51
2023/09/16 03:45:32;;;;;;;6.68;3.05;;;;;;;10.94;100.00;100621.00;5056982;28;20375;-53
2023/09/16 03:47:57;;;;;;;4.15;2.90;;;;;;;10.88;100.00;100625.25;5054227;28;20109;-53
2023/09/16 03:50:23;;;;;;;5.45;3.78;;;;;;;10.88;100.00;100633.19;5060576;28;20476;-49
2023/09/16 03:52:49;;;;;;;3.65;3.05;;;;;;;10.82;100.00;100624.16;5047755;28;20031;-53
2023/09/16 03:55:15;;;;;;;4.72;3.40;;;;;;;10.73;100.00;100622.63;5052732;28;20071;-50
2023/09/16 03:57:41;;;;;;;5.13;3.25;;;;;;;10.66;100.00;100625.22;5054828;28;20120;-54
2023/09/16 04:00:07;;;;;;;2.20;1.83;;;;;;;10.48;100.00;100622.19;5054166;28;20142;-50
2023/09/16 04:02:33;;;;;;;2.22;1.95;;;;;;;10.52;100.00;100625.28;5052888;28;20037;-52
2023/09/16 04:04:58;;;;;;;4.43;3.42;;;;;;;10.55;100.00;100620.41;5053888;28;20032;-50
2023/09/16 04:07:23;;;;;;;5.13;3.22;;;;;;;10.60;100.00;100635.75;5055759;28;20033;-49
2023/09/16 04:09:49;;;;;;;3.63;3.20;;;;;;;10.62;100.00;100623.13;5066950;28;20506;-51
2023/09/16 04:12:15;;;;;;;4.55;4.10;;;;;;;10.66;100.00;100627.88;5057122;28;20033;-54
2023/09/16 04:14:40;;;;;;;3.67;3.03;;;;;;;10.68;100.00;100627.69;5058466;28;20037;-52
2023/09/16 04:17:05;;;;;;;5.85;3.42;;;;;;;10.68;100.00;100628.50;5057732;28;20634;-50
2023/09/16 04:19:31;;;;;;;3.95;2.80;;;;;;;10.61;100.00;100624.13;5055742;28;20471;-53
2023/09/16 04:21:57;;;;;;;3.75;3.05;;;;;;;10.66;100.00;100622.59;5051699;28;20040;-52
2023/09/16 04:24:22;;;;;;;5.05;2.88;;;;;;;10.46;100.00;100627.66;5051376;28;20394;-54
2023/09/16 04:26:47;;;;;;;3.72;3.03;;;;;;;10.64;100.00;100619.28;5046303;28;20036;-49
2023/09/16 04:29:12;;;;;;;3.00;2.70;;;;;;;10.52;100.00;100628.75;5053805;28;20500;-50
2023/09/16 04:31:38;;;;;;;6.22;3.88;;;;;;;10.53;100.00;100630.38;5051812;28;20053;-53
2023/09/16 04:34:04;;;;;;;5.90;3.33;;;;;;;10.57;100.00;100630.84;5052631;28;20087;-53
2023/09/16 04:36:29;;;;;;;6.65;3.38;;;;;;;10.59;100.00;100632.28;5044599;28;20029;-52
2023/09/16 04:38:54;;;;;;;4.22;2.85;;;;;;;10.61;100.00;100624.13;5046339;28;20064;-53
2023/09/16 04:41:21;;;;;;;8.93;3.67;;;;;;;10.62;100.00;100631.91;5052391;28;20575;-55
2023/09/16 04:43:49;;;;;;;3.53;2.33;;;;;;;10.59;100.00;100627.00;5052779;28;20033;-53
2023/09/16 04:46:16;;;;;;;3.22;2.92;;;;;;;10.59;100.00;100639.44;5048632;28;20032;-53
2023/09/16 04:48:42;;;;;;;7.53;2.60;;;;;;;10.59;100.00;100640.25;5052609;28;20451;-52
2023/09/16 04:51:07;;;;;;;4.90;4.07;;;;;;;10.56;100.00;100637.97;5052999;28;20033;-53
2023/09/16 04:53:33;;;;;;;2.58;2.38;;;;;;;10.53;100.00;100638.31;5048213;28;20024;-53
2023/09/16 04:56:00;;;;;;;3.75;3.00;;;;;;;10.55;100.00;100641.63;5048233;28;20032;-53
2023/09/16 04:58:25;;;;;;;5.28;3.17;;;;;;;10.61;100.00;100646.19;5048455;28;20075;-50
2023/09/16 05:00:51;;;;;;;3.00;2.70;;;;;;;10.66;100.00;100643.78;5055321;28;20040;-51
2023/09/16 05:03:18;;;;;;;6.85;3.05;;;;;;;10.63;100.00;100643.34;5045908;28;20036;-51
2023/09/16 05:05:45;;;;;;;5.55;2.95;;;;;;;10.60;100.00;100638.41;5051787;28;20865;-52
2023/09/16 05:08:11;;;;;;;3.58;2.88;;;;;;;10.62;100.00;100633.75;5054142;28;20510;-52
2023/09/16 05:10:36;;;;;;;5.57;2.83;;;;;;;10.66;100.00;100641.16;5049435;28;20148;-53
2023/09/16 05:13:02;;;;;;;6.15;3.05;;;;;;;10.65;100.00;100641.31;5056403;28;20036;-49
2023/09/16 05:15:27;;;;;;;3.97;3.10;;;;;;;10.68;100.00;100635.63;5054104;28;20442;-53
2023/09/16 05:17:52;;;;;;;5.97;3.80;;;;;;;10.67;100.00;100632.16;5049919;28;20640;-51
2023/09/16 05:20:18;;;;;;;3.28;2.92;;;;;;;10.67;100.00;100632.16;5042876;28;20040;-52
2023/09/16 05:22:47;;;;;;;7.10;4.32;;;;;;;10.66;100.00;100638.50;5053745;28;20043;-52
2023/09/16 05:25:13;;;;;;;4.43;3.80;;;;;;;10.64;100.00;100637.03;5054123;28;20125;-51
2023/09/16 05:27:38;;;;;;;8.50;4.57;;;;;;;10.62;100.00;100639.06;5049750;28;20519;-51
2023/09/16 05:30:04;;;;;;;4.13;3.30;;;;;;;10.57;100.00;100647.56;5051031;28;20041;-53
2023/09/16 05:32:29;;;;;;;4.97;3.53;;;;;;;10.53;100.00;100634.84;5049824;28;20058;-52
2023/09/16 05:34:55;;;;;;;4.60;4.20;;;;;;;10.52;100.00;100642.00;5053838;28;20028;-50
2023/09/16 05:37:20;;;;;;;4.03;3.45;;;;;;;10.54;100.00;100645.28;5047753;28;20481;-53
2023/09/16 05:39:46;;;;;;;4.35;3.42;;;;;;;10.51;100.00;100650.13;5048549;28;20475;-50
2023/09/16 05:42:11;;;;;;;5.75;3.88;;;;;;;10.50;100.00;100649.31;5052545;28;20037;-54
2023/09/16 05:44:36;;;;;;;3.63;3.33;;;;;;;10.44;100.00;100650.06;5055263;28;20159;-53
2023/09/16 05:47:02;;;;;;;5.00;2.28;;;;;;;10.39;100.00;100641.84;5052410;28;20028;-54
2023/09/16 05:49:28;;;;;;;3.80;2.95;;;;;;;10.34;100.00;100638.94;5056395;28;20028;-49
2023/09/16 05:51:53;;;;;;;5.90;3.03;;;;;;;10.39;100.00;100637.34;5054784;28;20035;-53
2023/09/16 05:54:18;;;;;;;3.78;3.13;;;;;;;10.42;100.00;100636.16;5053290;28;20035;-53
2023/09/16 05:56:46;;;;;;;5.03;3.25;;;;;;;10.45;100.00;100641.94;5047510;28;20078;-50
2023/09/16 05:59:15;;;;;;;4.40;3.47;;;;;;;10.45;100.00;100643.75;5069056;28;20150;-49
2023/09/16 06:01:40;;;;;;;4.63;3.25;;;;;;;10.43;100.00;100643.13;5049683;28;20028;-50
2023/09/16 06:04:08;;;;;;;5.32;3.47;;;;;;;10.41;100.00;100650.44;5054268;28;20044;-51
2023/09/16 06:06:33;;;;;;;3.97;2.80;;;;;;;10.34;100.00;100644.22;5052022;28;20036;-51
2023/09/16 06:08:58;;;;;;;6.68;3.78;;;;;;;10.34;100.00;100649.53;5053492;28;20354;-50
2023/09/16 06:11:28;;;;;;;8.20;3.72;;;;;;;10.37;100.00;100646.50;5054947;28;20033;-51
2023/09/16 06:13:53;;;;;;;4.80;3.33;;;;;;;10.39;100.00;100653.25;5052381;28;20036;-55
2023/09/16 06:16:19;;;;;;;4.13;3.75;;;;;;;10.41;100.00;100656.56;5054603;28;20114;-51
2023/09/16 06:18:44;;;;;;;8.52;4.50;;;;;;;10.42;100.00;100657.38;5047958;28;20041;-51
2023/09/16 06:21:10;;;;;;;7.30;3.85;;;;;;;10.42;100.00;100662.66;5059528;28;20044;-52
2023/09/16 06:23:35;;;;;;;4.32;3.45;;;;;;;10.39;100.00;100663.03;5055108;28;20517;-53
2023/09/16 06:26:00;;;;;;;6.95;4.70;;;;;;;10.42;100.00;100660.03;5051889;28;20033;-50
2023/09/16 06:28:26;;;;;;;7.93;4.88;;;;;;;10.47;100.00;100662.94;5051645;28;20045;-51
2023/09/16 06:30:51;;;;;;;6.93;3.78;;;;;;;10.52;100.00;100662.38;5061247;28;20028;-53
2023/09/16 06:33:17;;;;;;;3.13;2.53;;;;;;;10.53;100.00;100670.13;5052342;28;20163;-50
2023/09/16 06:35:42;;;;;;;4.95;3.42;;;;;;;10.54;100.00;100674.44;5051870;28;20077;-49
2023/09/16 06:38:07;;;;;;;11.02;4.85;;;;;;;10.55;100.00;100684.03;5046743;28;20029;-50
2023/09/16 06:40:33;;;;;;;5.50;4.43;;;;;;;10.62;100.00;100682.28;5052848;28;20520;-52
2023/09/16 06:42:58;;;;;;;7.00;4.53;;;;;;;10.67;100.00;100685.19;5046215;28;20064;-54
2023/09/16 06:45:23;;;;;;;8.30;4.88;;;;;;;10.75;100.00;100694.06;5050050;28;20070;-52
2023/09/16 06:47:49;;;;;;;5.30;4.57;;;;;;;10.82;100.00;100690.47;5057969;28;20534;-53
2023/09/16 06:50:14;;;;;;;5.90;3.88;;;;;;;10.87;100.00;100693.38;5053202;28;20040;-51
2023/09/16 06:52:39;;;;;;;11.30;4.70;;;;;;;10.93;100.00;100697.13;5054288;28;20052;-50
2023/09/16 06:55:05;;;;;;;4.65;4.05;;;;;;;10.96;100.00;100702.03;5051461;28;20037;-54
2023/09/16 06:57:31;;;;;;;4.57;3.40;;;;;;;11.01;100.00;100699.66;5057744;28;20025;-51
2023/09/16 06:59:56;;;;;;;4.97;3.38;;;;;;;11.05;100.00;100705.41;5049800;28;20539;-52
2023/09/16 07:02:25;;;;;;;5.13;4.05;;;;;;;11.35;100.00;100712.22;5048933;28;20044;-50
2023/09/16 07:04:50;;;;;;;6.45;4.45;;;;;;;11.57;100.00;100721.00;5055288;28;20132;-50
2023/09/16 07:07:16;;;;;;;5.07;3.95;;;;;;;11.55;100.00;100733.66;5056980;28;20029;-53
2023/09/16 07:09:41;;;;;;;5.95;4.15;;;;;;;11.65;100.00;100728.03;5053168;28;20035;-51
2023/09/16 07:12:07;;;;;;;8.52;5.60;;;;;;;11.83;100.00;100735.53;5062228;28;20369;-56
2023/09/16 07:14:37;;;;;;;8.25;4.53;;;;;;;11.92;100.00;100734.38;5058362;28;20041;-50
2023/09/16 07:17:03;;;;;;;6.45;4.85;;;;;;;12.04;100.00;100732.00;5059761;28;20107;-51
2023/09/16 07:19:28;;;;;;;7.13;5.05;;;;;;;12.11;100.00;100732.06;5050908;28;20544;-56
2023/09/16 07:21:54;;;;;;;6.93;5.00;;;;;;;12.23;100.00;100731.31;5056596;28;20039;-52
2023/09/16 07:24:19;;;;;;;9.45;6.78;;;;;;;12.30;100.00;100728.69;5050604;28;20030;-55
2023/09/16 07:26:44;;;;;;;9.65;6.57;;;;;;;12.42;100.00;100734.28;5057132;28;20481;-49
2023/09/16 07:29:10;;;;;;;10.40;6.40;;;;;;;12.48;100.00;100735.34;5052559;28;20132;-55
2023/09/16 07:31:35;;;;;;;9.68;6.53;;;;;;;12.61;100.00;100732.72;5052433;28;20073;-49
2023/09/16 07:34:01;;;;;;;9.60;6.22;;;;;;;12.73;100.00;100733.81;5053890;28;20036;-55
2023/09/16 07:36:27;;;;;;;10.30;7.35;;;;;;;12.86;100.00;100727.72;5046641;28;20116;-52
2023/09/16 07:38:52;;;;;;;16.00;7.95;;;;;;;12.81;100.00;100738.13;5052522;28;20518;-51
2023/09/16 07:41:18;;;;;;;9.88;7.28;;;;;;;12.93;100.00;100735.72;5054020;28;20041;-53
2023/09/16 07:43:43;;;;;;;14.68;8.23;;;;;;;13.12;100.00;100737.63;5051777;28;20060;-49
2023/09/16 07:46:09;;;;;;;9.65;7.47;;;;;;;13.22;100.00;100742.56;5048223;28;20147;-52
2023/09/16 07:48:34;;;;;;;12.57;7.78;;;;;;;13.46;100.00;100738.53;5052450;28;20495;-55
2023/09/16 07:50:59;;;;;;;15.57;8.77;;;;;;;13.77;100.00;100747.75;5049112;28;20189;-50
2023/09/16 07:53:25;;;;;;;10.23;8.10;;;;;;;14.11;100.00;100746.69;5049279;28;20033;-52
2023/09/16 07:55:50;;;;;;;16.52;8.88;;;;;;;14.47;100.00;100746.19;5053333;28;20473;-51
2023/09/16 07:58:15;;;;;;;11.63;7.72;;;;;;;14.67;100.00;100748.03;5052277;28;20036;-53
2023/09/16 08:00:41;;;;;;;8.85;7.95;;;;;;;14.74;100.00;100743.44;5053809;28;20029;-53
2023/09/16 08:03:06;;;;;;;11.70;8.02;;;;;;;14.81;100.00;100741.59;5057572;28;20071;-52
2023/09/16 08:05:31;;;;;;;10.05;6.35;;;;;;;14.87;100.00;100739.91;5050373;28;20083;-53
2023/09/16 08:07:57;;;;;;;9.27;6.97;;;;;;;14.92;100.00;100745.44;5056474;28;20541;-52
2023/09/16 08:10:22;;;;;;;8.50;6.60;;;;;;;14.96;100.00;100738.63;5067190;28;20082;-52
2023/09/16 08:12:47;;;;;;;9.60;8.02;;;;;;;15.05;100.00;100746.19;5054197;28;20036;-50
2023/09/16 08:15:13;;;;;;;11.80;7.50;;;;;;;15.21;100.00;100744.06;5050921;28;20481;-52
2023/09/16 08:17:38;;;;;;;14.23;6.75;;;;;;;15.37;100.00;100748.88;5052299;28;20028;-53
2023/09/16 08:20:08;;;;;;;13.73;7.38;;;;;;;15.73;100.00;100750.06;5052108;28;20032;-51
2023/09/16 08:22:33;;;;;;;16.75;6.53;;;;;;;16.21;100.00;100754.78;5050111;28;20056;-50
2023/09/16 08:24:58;;;;;;;7.97;5.65;;;;;;;16.68;100.00;100764.97;5051055;28;20436;-53
2023/09/16 08:27:25;;;;;;;12.63;5.82;;;;;;;17.07;100.00;100761.00;5049575;28;20040;-51
2023/09/16 08:29:52;;;;;;;12.85;5.53;;;;;;;17.29;100.00;100765.84;5047290;28;20123;-51
2023/09/16 08:32:18;;;;;;;8.07;5.35;;;;;;;17.54;100.00;100753.09;5050218;28;20455;-56
2023/09/16 08:34:43;;;;;;;10.63;5.57;;;;;;;17.76;100.00;100750.69;5052466;28;20076;-54
2023/09/16 08:37:11;;;;;;;8.23;6.05;;;;;;;17.96;100.00;100747.66;5049866;28;20066;-52
2023/09/16 08:39:36;;;;;;;7.72;5.13;;;;;;;18.13;100.00;100738.94;5048019;28;20070;-54
2023/09/16 08:42:07;;;;;;;10.27;5.00;;;;;;;18.30;100.00;100729.94;5047718;28;20143;-52
2023/09/16 08:44:38;;;;;;;10.05;4.90;;;;;;;18.43;100.00;100715.44;5049010;28;20056;-51
2023/09/16 08:47:08;;;;;;;9.03;4.23;;;;;;;18.40;100.00;100707.81;5050111;28;20029;-54
2023/09/16 08:49:42;;;;;;;6.80;4.05;;;;;;;18.55;100.00;100711.91;5055385;28;20286;-57
2023/09/16 08:52:09;;;;;;;19.60;5.32;;;;;;;18.63;100.00;100706.13;5051921;28;21013;-54
2023/09/16 08:54:39;;;;;;;11.77;4.25;;;;;;;18.74;100.00;100698.06;5047220;28;20079;-54
2023/09/16 08:57:05;;;;;;;7.40;3.83;;;;;;;18.90;100.00;100691.13;5053317;28;20031;-55
2023/09/16 08:59:32;;;;;;;4.85;3.97;;;;;;;19.12;100.00;100696.59;5052105;28;20503;-55
2023/09/16 09:01:57;;;;;;;6.35;3.38;;;;;;;19.22;100.00;100693.28;5046105;28;20526;-57
2023/09/16 09:04:24;;;;;;;6.72;3.40;;;;;;;19.21;100.00;100688.16;5041805;28;20222;-54
2023/09/16 09:06:51;;;;;;;7.15;3.42;;;;;;;19.40;100.00;100679.59;5055633;28;20024;-53
2023/09/16 09:09:16;;;;;;;7.80;3.33;;;;;;;19.55;100.00;100665.59;5053213;28;20451;-55
2023/09/16 09:11:42;;;;;;;3.58;3.15;;;;;;;19.70;100.00;100677.66;5050328;28;20140;-54
2023/09/16 09:14:10;;;;;;;4.80;2.80;;;;;;;19.94;100.00;100667.50;5048373;28;20032;-54
2023/09/16 09:16:40;;;;;;;8.25;3.17;;;;;;;20.12;100.00;100659.13;5050074;28;20583;-54
2023/09/16 09:19:06;;;;;;;4.43;3.03;;;;;;;20.20;100.00;100656.00;5048637;28;20064;-54
2023/09/16 09:21:32;;;;;;;6.72;4.05;;;;;;;20.20;100.00;100644.41;5051072;28;20037;-55
2023/09/16 09:23:58;;;;;;;3.95;3.60;;;;;;;20.26;100.00;100638.88;5048139;28;20115;-52
2023/09/16 09:26:24;;;;;;;6.40;3.50;;;;;;;20.33;100.00;100645.91;5052753;28;20021;-54
2023/09/16 09:28:49;;;;;;;10.15;3.83;;;;;;;20.42;100.00;100641.69;5057742;28;20033;-51
2023/09/16 09:31:15;;;;;;;5.32;3.22;;;;;;;20.55;100.00;100635.13;5052458;28;20336;-55
2023/09/16 09:33:41;;;;;;;4.90;2.60;;;;;;;20.69;100.00;100631.78;5048785;28;20422;-50
2023/09/16 09:36:11;;;;;;;3.15;2.70;;;;;;;20.74;100.00;100632.91;5055334;28;20476;-55
2023/09/16 09:38:44;;;;;;;5.43;2.77;;;;;;;20.69;100.00;100625.59;5056864;28;20036;-49
2023/09/16 09:41:10;;;;;;;3.17;2.45;;;;;;;20.71;100.00;100625.34;5054926;28;20085;-54
2023/09/16 09:43:35;;;;;;;6.20;2.92;;;;;;;20.91;100.00;100626.34;5044075;28;20819;-52
2023/09/16 09:46:02;;;;;;;4.90;2.38;;;;;;;20.88;100.00;100612.56;5042998;28;20044;-51
2023/09/16 09:48:28;;;;;;;8.50;3.92;;;;;;;21.07;100.00;100616.50;5040486;28;20039;-53
2023/09/16 09:50:54;;;;;;;3.50;2.35;;;;;;;21.18;100.00;100612.00;5038958;28;20037;-55
2023/09/16 09:53:21;;;;;;;7.30;3.20;;;;;;;21.22;100.00;100605.03;5040053;28;20376;-54
2023/09/16 09:55:48;;;;;;;3.55;3.25;;;;;;;21.34;100.00;100604.84;5046673;28;20470;-54
2023/09/16 09:58:14;;;;;;;8.95;2.60;;;;;;;21.50;100.00;100605.75;5044748;28;20371;-52
2023/09/16 10:00:47;;;;;;;6.45;3.38;;;;;;;21.53;100.00;100602.56;5039038;28;20036;-49
2023/09/16 10:03:13;;;;;;;6.72;3.72;;;;;;;21.64;100.00;100614.22;5042233;28;20029;-54
2023/09/16 10:05:39;;;;;;;6.78;3.42;;;;;;;21.70;100.00;100600.50;5045207;28;20040;-50
2023/09/16 10:08:05;;;;;;;7.22;3.15;;;;;;;21.77;100.00;100601.06;5041993;28;20065;-55
2023/09/16 10:10:31;;;;;;;4.32;2.90;;;;;;;21.85;100.00;100610.56;5042741;28;20039;-51
2023/09/16 10:12:57;;;;;;;11.13;4.15;;;;;;;22.01;100.00;100603.34;5046043;28;20029;-51
2023/09/16 10:15:34;;;;;;;6.88;3.15;;;;;;;22.16;100.00;100608.78;5043728;28;20237;-50
2023/09/16 10:18:00;;;;;;;6.80;3.47;;;;;;;22.28;100.00;100603.19;5041284;28;20112;-52
2023/09/16 10:20:31;;;;;;;9.63;4.22;;;;;;;22.36;100.00;100601.88;5045512;28;20112;-50
2023/09/16 10:22:57;;;;;;;5.03;3.38;;;;;;;22.35;100.00;100611.03;5046044;28;20032;-50
2023/09/16 10:25:23;;;;;;;8.23;4.45;;;;;;;22.33;100.00;100600.50;5046064;28;20028;-52
2023/09/16 10:28:03;;;;;;;5.80;3.72;;;;;;;22.37;100.00;100585.38;5044505;28;21278;-54
2023/09/16 10:30:32;;;;;;;7.18;3.83;;;;;;;22.48;100.00;100585.41;5043642;28;20024;-55
2023/09/16 10:33:11;;;;;;;10.40;4.13;;;;;;;22.57;100.00;100589.22;5047649;28;20045;-54
2023/09/16 10:35:39;;;;;;;5.55;3.97;;;;;;;22.46;100.00;100582.97;5047852;28;20433;-55
2023/09/16 10:38:06;;;;;;;7.82;4.38;;;;;;;22.74;100.00;100583.53;5043776;28;20028;-52
2023/09/16 10:40:32;;;;;;;6.47;3.80;;;;;;;22.70;100.00;100577.88;5044191;28;20056;-56
2023/09/16 10:43:00;;;;;;;4.10;3.28;;;;;;;22.78;100.00;100573.81;5045719;28;20047;-53
2023/09/16 10:45:26;;;;;;;10.20;4.80;;;;;;;22.74;100.00;100564.63;5041414;28;20029;-56
2023/09/16 10:47:52;;;;;;;6.78;4.10;;;;;;;22.75;100.00;100564.34;5044296;28;20086;-56
2023/09/16 10:50:20;;;;;;;13.50;5.65;;;;;;;22.53;100.00;100563.78;5038705;28;20501;-52
2023/09/16 10:52:53;;;;;;;8.75;4.55;;;;;;;22.42;100.00;100565.66;5041896;28;20036;-56
2023/09/16 10:55:34;;;;;;;4.47;3.63;;;;;;;22.68;100.00;100552.19;5041925;28;20056;-52
2023/09/16 10:58:06;;;;;;;6.27;3.03;;;;;;;23.04;100.00;100559.22;5042855;28;20036;-52
2023/09/16 11:00:41;;;;;;;7.15;2.70;;;;;;;23.26;100.00;100550.03;5038272;28;20046;-52
2023/09/16 11:03:14;;;;;;;10.15;4.20;;;;;;;23.38;100.00;100555.13;5041312;28;20427;-55
2023/09/16 11:05:40;;;;;;;5.35;3.40;;;;;;;23.46;100.00;100549.13;5038803;28;20056;-54
2023/09/16 11:08:06;;;;;;;4.95;3.60;;;;;;;23.48;100.00;100546.97;5039974;28;20127;-53
2023/09/16 11:10:32;;;;;;;6.30;3.80;;;;;;;23.63;100.00;100546.91;5037782;28;20021;-54
2023/09/16 11:12:58;;;;;;;8.48;4.88;;;;;;;23.48;100.00;100546.97;5039609;28;20032;-56